ADDS METAR Data INFO
IDs: Format: Raw Decoded Include TAF

Data at: 1514 UTC 22 Jun 2018

KWVI 221511Z AUTO 00000KT 1 1/4SM BR OVC002 A2999 RMK AO2 $
KWVI 221500Z AUTO 00000KT 3/4SM BR VV002 A2998 RMK AO2 $
KWVI 221453Z AUTO 00000KT 1/4SM FG VV002 A2998 RMK AO2 SLPNO 53006 $
KWVI 221353Z AUTO 25003KT M1/4SM FG VV002 A2998 RMK AO2 SLPNO $
KWVI 221309Z AUTO 27003KT 1/4SM FG VV002 A2997 RMK AO2 $
KWVI 221253Z AUTO 00000KT 1/2SM FG VV002 A2996 RMK AO2 SLPNO $
KWVI 221233Z AUTO 00000KT 1/2SM FG VV002 A2997 RMK AO2 $
KWVI 221153Z AUTO 00000KT 1/4SM FG VV002 11/11 A2997 RMK AO2 SLP147 T01060106 10128 20083 58002
KWVI 221053Z AUTO 00000KT 1/4SM FG VV001 09/09 A2997 RMK AO2 SLP148 T00940089
KWVI 221051Z AUTO 00000KT 1/2SM FG VV002 09/09 A2997 RMK AO2
KWVI 221045Z AUTO 00000KT 1 1/2SM BR BKN002 08/08 A2997 RMK AO2 T00830083
KWVI 221038Z AUTO 19003KT 2SM BR FEW002 09/08 A2997 RMK AO2 T00890083
KWVI 220953Z AUTO 00000KT 6SM BR CLR 09/09 A2997 RMK AO2 SLP150 T00940089
KWVI 220853Z AUTO 32003KT 7SM CLR 11/09 A2997 RMK AO2 SLP149 T01060094 56004
KWVI 220753Z AUTO 00000KT 7SM CLR 12/10 A2997 RMK AO2 SLP150 T01170100 402220067
KWVI 220653Z AUTO 00000KT 6SM BR CLR 12/11 A2998 RMK AO2 SLP151 T01170106
KWVI 220553Z AUTO 00000KT 7SM CLR 13/11 A2998 RMK AO2 SLP153 T01280111 10222 20122 51007
KWVI 220453Z AUTO 11003KT 7SM CLR 13/11 A2998 RMK AO2 SLP152 T01280106
KWVI 220353Z AUTO 18005KT 8SM CLR 13/11 A2997 RMK AO2 SLP147 T01330106
KWVI 220253Z AUTO 15006KT 8SM CLR 16/12 A2996 RMK AO2 SLP145 T01560117 55003
KWVI 220153Z AUTO 13009KT 9SM CLR 18/12 A2996 RMK AO2 SLP145 T01780117
KWVI 220053Z AUTO 14008KT 10SM CLR 20/11 A2996 RMK AO2 SLP144 T02000111
KWVI 212353Z AUTO 18006KT 10SM CLR 22/11 A2997 RMK AO2 SLP148 T02220111 10222 20189 57013
KWVI 212253Z AUTO 16007KT 10SM CLR 22/11 A2998 RMK AO2 SLP153 T02170111
KWVI 212153Z AUTO 16006KT 10SM CLR 22/11 A2999 RMK AO2 SLP156 T02170106
KWVI 212053Z AUTO 18009KT 10SM CLR 21/11 A3001 RMK AO2 SLP161 T02060111 58004
KWVI 211953Z AUTO 17007KT 10SM CLR 21/12 A3001 RMK AO2 SLP163 T02060117
KWVI 211853Z AUTO 19007KT 10SM CLR 19/12 A3002 RMK AO2 SLP165 T01940117
KWVI 211753Z AUTO 17007KT 9SM CLR 19/12 A3002 RMK AO2 SLP166 T01940122 10194 20067 58003
KWVI 211653Z AUTO 00000KT 9SM CLR 17/12 A3003 RMK AO2 SLP168 T01670117
KWVI 211553Z AUTO 00000KT 8SM CLR 14/11 A3003 RMK AO2 SLP169 T01440106
No TAF found for KWVI

KSNS 221501Z 08003KT 1SM BR OVC002 12/11 A2998 RMK AO2 T01170111 RVRNO $
KSNS 221453Z 00000KT 2SM BR OVC002 12/11 A2998 RMK AO2 VIS 1V4 RAB40E50 SLP161 P0000 60000 T01170111 53006 $
KSNS 221449Z 00000KT 3SM -RA BR OVC002 12/11 A2998 RMK AO2 RAB40 P0000 $
KSNS 221444Z 00000KT 1 3/4SM -RA BR OVC002 12/11 A2998 RMK AO2 RAB40 P0000 T01170111 $
KSNS 221430Z 00000KT 1/2SM FG VV003 11/11 A2998 RMK AO2 T01110111 RVRNO $
KSNS 221353Z VRB03KT 1/4SM FG VV002 11/11 A2997 RMK AO2 SLP158 T01110111 RVRNO $
KSNS 221343Z 14004KT 1/4SM FG OVC002 12/11 A2997 RMK AO2 T01170111 RVRNO $
KSNS 221330Z 14004KT 3/4SM BR OVC002 12/11 A2997 RMK AO2 T01170111 RVRNO $
KSNS 221321Z 15005KT 2 1/2SM BR OVC004 12/11 A2996 RMK AO2 CIG 002V006 T01220111 $
KSNS 221253Z 16003KT 8SM OVC005 12/11 A2996 RMK AO2 SLP154 T01220106 $
KSNS 221153Z 00000KT 9SM OVC006 12/11 A2996 RMK AO2 SLP155 T01220111 58004 $
KSNS 221053Z AUTO 30003KT 8SM OVC006 13/11 A2997 RMK AO2 SLP157 T01280111 $
KSNS 220953Z AUTO 33004KT 8SM OVC006 13/12 A2997 RMK AO2 SLP157 T01280117 $
KSNS 220853Z AUTO 31007KT 7SM OVC005 13/12 A2997 RMK AO2 SLP159 T01330117 50000 $
KSNS 220753Z AUTO 31010KT 8SM OVC006 13/11 A2998 RMK AO2 SLP160 T01330111 402060117 $
KSNS 220736Z AUTO 32009KT 8SM BKN006 A2997 RMK AO2 $
KSNS 220726Z AUTO 31010KT 8SM SCT006 A2997 RMK AO2 $
KSNS 220653Z AUTO 34008KT 9SM CLR A2997 RMK AO2 SLPNO $
KSNS 220553Z AUTO 34006KT 9SM CLR 14/11 A2997 RMK AO2 SLP159 T01390111 10200 20139 53002
KSNS 220453Z AUTO 34008KT 9SM CLR 14/11 A2997 RMK AO2 SLP159 T01440111
KSNS 220353Z AUTO 34009KT 10SM CLR 15/11 A2996 RMK AO2 SLP152 T01500111
KSNS 220253Z AUTO 31011KT 9SM CLR 16/11 A2997 RMK AO2 SLP157 T01560111 55000
KSNS 220153Z 31013KT 10SM CLR 17/11 A2996 RMK AO2 SLP154 T01720111
KSNS 220053Z 32013KT 10SM CLR 18/12 A2997 RMK AO2 SLP158 T01830117
KSNS 212353Z 32013KT 10SM CLR 19/11 A2997 RMK AO2 SLP157 T01940111 10206 20172 58012
KSNS 212253Z 31014KT 10SM CLR 19/11 A2999 RMK AO2 SLP163 T01940106
KSNS 212153Z 30013G18KT 10SM CLR 19/11 A3000 RMK AO2 SLP167 T01940106
KSNS 212053Z 29014G19KT 10SM CLR 20/11 A3000 RMK AO2 SLP169 T02000106 58003
KSNS 211953Z 29013KT 10SM CLR 19/11 A3002 RMK AO2 SLP174 T01890106
KSNS 211853Z 28011KT 10SM CLR 20/11 A3001 RMK AO2 SLP171 T02000106
KSNS 211753Z 34005KT 10SM FEW005 17/11 A3002 RMK AO2 SLP173 T01720111 10172 20117 58004
KSNS 211700Z 34005KT 9SM FEW005 16/11 A3002 RMK AO2 T01560111
KSNS 211653Z 34005KT 9SM SCT005 BKN012 15/11 A3002 RMK AO2 SLP176 T01500111
KSNS 211635Z COR 34004KT 8SM SCT005 BKN012 13/11 A3003
KSNS 211553Z 34004KT 8SM OVC005 13/11 A3003 RMK AO2 SLP179 T01330106

KSNS 221427Z 2214/2312 30003KT 1/2SM FG VV002
  TEMPO 2214/2215 2SM BR OVC005
  FM221600 VRB03KT P6SM FEW009
  FM221800 29012KT P6SM SKC
  FM230400 30006KT P6SM SKC
  FM230800 30003KT P6SM SKC


KMRY 221511Z 04003KT 3SM BR OVC001 12/11 A2998 RMK AO2 T01170111
KMRY 221503Z 00000KT 1 3/4SM BR OVC001 11/11 A2998 RMK AO2 VIS 1 1/4V2 1/2 T01110111
KMRY 221454Z 00000KT 1/2SM FG VV001 12/11 A2998 RMK AO2 SLP165 T01170111 53005 RVRNO
KMRY 221443Z 00000KT 1/2SM FG VV001 11/11 A2998 RMK AO2 T01110111 RVRNO
KMRY 221429Z VRB03KT 1/2SM FG OVC002 12/11 A2998 RMK AO2 T01170111 RVRNO
KMRY 221418Z 24003KT 1 3/4SM BR OVC002 11/11 A2998 RMK AO2 T01110106
KMRY 221354Z 12003KT 5SM BR OVC003 11/11 A2998 RMK AO2 SLP163 T01110106
KMRY 221327Z 00000KT 10SM SCT002 11/10 A2997 RMK AO2 T01060100
KMRY 221320Z 11003KT 1SM SCT002 11/10 A2997 RMK AO2 T01060100 RVRNO
KMRY 221313Z 11004KT 2 1/2SM BR OVC002 11/10 A2997 RMK AO2 VIS 1V5 CIG 001V005 T01110100
KMRY 221254Z 11005KT 10SM SCT004 11/09 A2997 RMK AO2 SLP159 T01110094
KMRY 221154Z AUTO 19003KT 8SM OVC004 12/11 A2997 RMK AO2 SLP159 T01170111 10128 20117 58006
KMRY 221054Z AUTO 21004KT 5SM BR OVC002 12/12 A2998 RMK AO2 SLP163 T01220117
KMRY 221038Z AUTO 21006KT 4SM BR OVC004 12/11 A2998 RMK AO2 CIG 001V005 T01220111
KMRY 220954Z AUTO 22004KT 10SM OVC006 12/11 A2997 RMK AO2 SLP162 T01220106
KMRY 220854Z AUTO 19003KT 9SM OVC005 13/11 A2998 RMK AO2 SLP165 T01280111 58005
KMRY 220754Z AUTO 22007KT 10SM OVC005 13/11 A2999 RMK AO2 SLP168 T01280111 401780111
KMRY 220706Z AUTO 22004KT 10SM BKN006 OVC010 13/11 A3000 RMK AO2 T01280111
KMRY 220654Z AUTO 21005KT 10SM FEW006 BKN010 12/11 A3000 RMK AO2 SLP170 T01220106
KMRY 220652Z AUTO 21006KT 10SM BKN010 12/11 A3000 RMK AO2
KMRY 220635Z AUTO 24005KT 10SM FEW009 13/11 A3000 RMK AO2 T01280106
KMRY 220554Z AUTO 21004KT 10SM CLR 13/11 A3000 RMK AO2 SLP169 T01280106 10178 20128 50001
KMRY 220454Z AUTO 20006KT 10SM CLR 13/11 A3000 RMK AO2 SLP171 T01330106
KMRY 220354Z 21010KT 10SM CLR 13/11 A2999 RMK AO2 SLP167 T01330111
KMRY 220254Z 23008KT 10SM CLR 14/11 A2999 RMK AO2 SLP168 T01390111 58002
KMRY 220154Z 24008KT 10SM FEW010 16/11 A3000 RMK AO2 SLP169 T01560111
KMRY 220054Z 27009KT 10SM CLR 16/11 A3000 RMK AO2 SLP170 T01610111
KMRY 212354Z 28008KT 10SM FEW010 17/11 A3000 RMK AO2 SLP170 T01720111 10178 20139 57015
KMRY 212254Z 27011KT 10SM CLR 18/11 A3001 RMK AO2 SLP175 T01780111
KMRY 212154Z 27011KT 10SM CLR 17/11 A3003 RMK AO2 SLP179 T01670106
KMRY 212054Z 29011KT 10SM FEW010 16/11 A3004 RMK AO2 SLP185 T01610106 50000
KMRY 211954Z 29011KT 10SM SCT010 14/11 A3005 RMK AO2 SLP187 T01440106
KMRY 211854Z 29009G17KT 10SM FEW011 15/11 A3005 RMK AO2 SLP187 T01500106
KMRY 211754Z 29009KT 10SM CLR 14/10 A3004 RMK AO2 SLP185 T01390100 10144 20111 58002
KMRY 211709Z 29008KT 10SM SCT011 13/11 A3004 RMK AO2 T01330106
KMRY 211702Z 30009KT 10SM BKN011 13/11 A3005 RMK AO2 T01330106
KMRY 211654Z 29010KT 10SM OVC007 13/11 A3005 RMK AO2 CIG 005V009 SLP186 T01330106
KMRY 211635Z 25009KT 10SM OVC005 13/11 A3005 RMK AO2 CIG 002V008 T01280106
KMRY 211554Z 29006KT 5SM BR OVC003 12/10 A3005 RMK AO2 CIG 001V006 SLP187 T01170100
KMRY 211549Z 25006KT 7SM OVC003 12/10 A3005 RMK AO2 CIG 001V007

KMRY 221427Z 2214/2312 11003KT 2SM BR BKN002
  FM221500 VRB04KT P6SM FEW008
  FM221900 28011KT P6SM SKC
  FM230400 21004KT P6SM SKC
  FM231000 21003KT 3SM BR BKN003


KSJC 221453Z 00000KT 10SM FEW100 17/12 A2996 RMK AO2 SLP146 T01670122 53003
KSJC 221353Z 00000KT 10SM FEW013 15/12 A2996 RMK AO2 SLP144 T01500117
KSJC 221253Z 00000KT 10SM FEW013 14/12 A2995 RMK AO2 SLP141 T01440117
KSJC 221153Z AUTO 00000KT 10SM CLR 15/12 A2995 RMK AO2 SLP143 T01500117 10167 20139 56004
KSJC 221053Z AUTO 00000KT 10SM CLR 15/12 A2996 RMK AO2 SLP144 T01500117
KSJC 220953Z AUTO 00000KT 10SM CLR 15/12 A2996 RMK AO2 SLP144 T01500117
KSJC 220853Z AUTO 32005KT 10SM CLR 15/12 A2997 RMK AO2 SLP147 T01500117 57002
KSJC 220753Z AUTO 30007KT 10SM CLR 16/12 A2997 RMK AO2 SLP148 T01560122 402670128
KSJC 220653Z 31008KT 10SM CLR 17/12 A2997 RMK AO2 SLP147 LAST T01670122
KSJC 220553Z 30006KT 10SM CLR 17/12 A2997 RMK AO2 SLP148 T01670122 10267 20167 50005
KSJC 220453Z 29005KT 10SM CLR 18/13 A2997 RMK AO2 SLP149 T01780128
KSJC 220353Z 27005KT 10SM FEW070 19/13 A2996 RMK AO2 SLP145 T01890128
KSJC 220253Z 29009KT 10SM FEW070 21/11 A2996 RMK AO2 SLP143 T02060111 53001
KSJC 220153Z 29014KT 10SM FEW070 23/12 A2995 RMK AO2 SLP143 T02280117
KSJC 220053Z 29011KT 10SM CLR 24/13 A2995 RMK AO2 SLP140 T02390128
KSJC 212353Z 30007KT 10SM CLR 27/12 A2995 RMK AO2 SLP142 T02670117 10267 20194 58015
KSJC 212253Z 31010KT 10SM CLR 26/12 A2997 RMK AO2 SLP148 T02560117
KSJC 212153Z 28008KT 10SM CLR 24/12 A2998 RMK AO2 SLP152 T02440117
KSJC 212053Z 30009KT 10SM CLR 22/12 A3000 RMK AO2 SLP157 T02220122 58008
KSJC 211953Z 31008KT 10SM CLR 22/13 A3001 RMK AO2 SLP161 T02170128
KSJC 211853Z 28008KT 10SM CLR 21/11 A3002 RMK AO2 SLP164 T02110111
KSJC 211753Z 32005KT 10SM CLR 20/11 A3002 RMK AO2 SLP165 T02000106 10200 20133 58004
KSJC 211653Z 27003KT 10SM FEW011 17/11 A3003 RMK AO2 SLP167 T01720106
KSJC 211553Z 00000KT 10SM FEW011 SCT014 16/11 A3004 RMK AO2 SLP171 T01560106

KSJC 221120Z 2212/2312 VRB02KT P6SM SKC
  FM221800 32006KT P6SM FEW250
  FM222100 31012KT P6SM FEW250
  FM230400 31005KT P6SM SKC
  FM230700 VRB03KT P6SM SKC


KSFO 221456Z 30005KT 10SM FEW008 FEW200 16/10 A2997 RMK AO2 SLP147 T01610100 53005 $
KSFO 221356Z 29007KT 10SM FEW008 FEW200 14/10 A2996 RMK AO2 SLP145 T01440100 $
KSFO 221256Z 29007KT 10SM FEW008 13/09 A2995 RMK AO2 SLP141 T01330094 $
KSFO 221156Z 29009KT 10SM FEW010 14/09 A2995 RMK AO2 SLP142 T01390094 10150 20133 58001 $
KSFO 221056Z 30007KT 10SM FEW200 14/09 A2996 RMK AO2 SLP144 T01390094 $
KSFO 220956Z 29009KT 10SM FEW200 13/09 A2996 RMK AO2 SLP144 T01330094 $
KSFO 220856Z 29009KT 10SM FEW200 13/09 A2995 RMK AO2 SLP143 T01330094 58006 $
KSFO 220756Z 29012KT 10SM FEW013 14/10 A2996 RMK AO2 SLP145 T01390100 402060122 $
KSFO 220656Z 29014KT 10SM FEW025 14/10 A2997 RMK AO2 SLP148 T01440100
KSFO 220556Z 29016KT 10SM FEW011 15/10 A2997 RMK AO2 SLP149 T01500100 10194 20150 50003
KSFO 220456Z 29017KT 10SM FEW013 15/10 A2997 RMK AO2 SLP150 T01500100
KSFO 220356Z 29016KT 10SM FEW013 FEW150 16/09 A2996 RMK AO2 SLP145 T01560094
KSFO 220256Z 29015KT 10SM FEW013 16/10 A2996 RMK AO2 SLP146 T01610100 55003
KSFO 220156Z 28021KT 10SM FEW013 17/10 A2996 RMK AO2 PK WND 28032/0106 SLP145 T01720100
KSFO 220056Z 28023KT 10SM FEW010 18/10 A2996 RMK AO2 PK WND 27030/0001 SLP146 T01830100
KSFO 212356Z 28025G31KT 10SM FEW010 19/09 A2997 RMK AO2 PK WND 28031/2348 SLP149 T01890094 10206 20161 58011
KSFO 212256Z 29023KT 10SM CLR 19/10 A2998 RMK AO2 PK WND 30026/2253 SLP151 T01940100
KSFO 212156Z 29022KT 10SM FEW010 19/10 A3000 RMK AO2 SLP159 T01890100
KSFO 212056Z 30017KT 10SM FEW014 20/10 A3000 RMK AO2 SLP160 T02000100 58010
KSFO 211956Z 29017KT 10SM FEW013 19/10 A3002 RMK AO2 SLP166 T01890100
KSFO 211856Z 28017KT 10SM FEW012 18/09 A3003 RMK AO2 SLP170 T01780094
KSFO 211756Z 30015KT 10SM FEW008 FEW013 17/09 A3004 RMK AO2 SLP170 T01670094 10167 20122 51001
KSFO 211656Z 29012KT 10SM FEW007 SCT011 16/09 A3003 RMK AO2 SLP170 T01560094
KSFO 211556Z 27008KT 10SM SCT008 BKN011 15/09 A3004 RMK AO2 SLP173 T01500094

KSFO 221502Z 2215/2318 30007KT P6SM FEW008 FEW250
  FM222000 30015KT P6SM FEW250
  FM222200 29021KT P6SM FEW250
  FM230400 29013KT P6SM SKC
  FM230800 29009KT P6SM SKC
  FM231100 29006KT P6SM SKC


KHAF 221500Z AUTO 00000KT 4SM BR OVC013 12/11 A3000 RMK AO2
KHAF 221455Z AUTO 18004KT 4SM BR OVC011 12/11 A3000 RMK AO2
KHAF 221440Z AUTO 00000KT 4SM BR OVC011 12/10 A3000 RMK AO2
KHAF 221435Z AUTO 00000KT 4SM BR OVC011 12/10 A3000 RMK AO2
KHAF 221415Z AUTO 07003KT 4SM BR OVC009 10/10 A2999 RMK AO2
KHAF 221400Z AUTO 06004KT 4SM BR OVC009 10/09 A2999 RMK AO2
KHAF 221355Z AUTO 00000KT 4SM BR BKN009 10/09 A2999 RMK AO2
KHAF 221340Z AUTO 00000KT 5SM BR SCT005 BKN011 09/08 A2999 RMK AO2
KHAF 221335Z AUTO 00000KT 5SM BR SCT005 09/08 A2999 RMK AO2
KHAF 221320Z AUTO 00000KT 6SM BR OVC005 09/08 A2998 RMK AO2
KHAF 221315Z AUTO 05003KT 6SM BR OVC005 09/08 A2998 RMK AO2
KHAF 221255Z AUTO 07003KT 5SM BR BKN003 OVC006 09/09 A2998 RMK AO2
KHAF 221240Z AUTO 06003KT 2SM BR BKN003 OVC006 09/09 A2998 RMK AO2
KHAF 221235Z AUTO 06005KT 1 1/4SM BR BKN003 OVC006 09/09 A2998 RMK AO2
KHAF 221220Z AUTO 07005KT 4SM BR OVC004 10/09 A2998 RMK AO2
KHAF 221215Z AUTO 06005KT 5SM BR OVC005 10/09 A2998 RMK AO2
KHAF 221155Z AUTO 06006KT 5SM BR OVC006 10/09 A2998 RMK AO2
KHAF 221135Z AUTO 06004KT 7SM OVC006 10/09 A2998 RMK AO2
KHAF 221120Z AUTO 00000KT 7SM OVC006 09/08 A2998 RMK AO2
KHAF 221115Z AUTO 05003KT 7SM OVC006 10/09 A2998 RMK AO2
KHAF 221100Z AUTO 00000KT 7SM OVC006 09/08 A2999 RMK AO2
KHAF 221055Z AUTO 00000KT 7SM OVC006 09/08 A2999 RMK AO2
KHAF 221035Z AUTO 06003KT 7SM OVC006 09/08 A2999 RMK AO2
KHAF 221020Z AUTO 05003KT 7SM OVC006 08/07 A2999 RMK AO2
KHAF 221015Z AUTO 00000KT 7SM OVC006 08/07 A2999 RMK AO2
KHAF 221000Z AUTO 00000KT 7SM OVC006 08/07 A2999 RMK AO2
KHAF 220955Z AUTO 00000KT 7SM OVC006 08/07 A2999 RMK AO2
KHAF 220935Z AUTO 00000KT 7SM SCT006 BKN012 08/07 A2999 RMK AO2
KHAF 220915Z AUTO 00000KT 6SM BR FEW014 SCT021 08/08 A2999 RMK AO2
KHAF 220900Z AUTO 06003KT 7SM FEW008 SCT014 09/08 A2999 RMK AO2
KHAF 220855Z AUTO 00000KT 7SM FEW008 SCT014 09/08 A2999 RMK AO2
KHAF 220840Z AUTO 07003KT 7SM FEW006 09/08 A3000 RMK AO2
KHAF 220835Z AUTO 00000KT 7SM FEW005 FEW010 09/08 A3000 RMK AO2
KHAF 220815Z AUTO 00000KT 7SM CLR 09/08 A2999 RMK AO2
KHAF 220800Z AUTO 00000KT 7SM SCT009 09/08 A2999 RMK AO2
KHAF 220755Z AUTO 00000KT 7SM BKN009 10/08 A2999 RMK AO2
KHAF 220740Z AUTO 00000KT 5SM BR OVC009 12/10 A2999 RMK AO2
KHAF 220735Z AUTO 00000KT 5SM BR OVC009 12/10 A2999 RMK AO2
KHAF 220720Z AUTO 35004KT 5SM BR OVC009 12/11 A3000 RMK AO2
KHAF 220715Z AUTO 35004KT 5SM BR OVC009 13/11 A3000 RMK AO2
KHAF 220655Z AUTO 35004KT 6SM BR OVC011 13/11 A3000 RMK AO2
KHAF 220640Z AUTO 33003KT 5SM BR OVC011 12/11 A3001 RMK AO2
KHAF 220635Z AUTO 33004KT 5SM BR OVC011 12/11 A3001 RMK AO2
KHAF 220620Z AUTO 33004KT 5SM BR OVC011 12/11 A3001 RMK AO2
KHAF 220615Z AUTO 31003KT 5SM BR OVC011 12/10 A3001 RMK AO2
KHAF 220555Z AUTO 00000KT 6SM BR OVC011 11/10 A3002 RMK AO2
KHAF 220535Z AUTO 00000KT 7SM OVC011 10/09 A3002 RMK AO2
KHAF 220520Z AUTO 04003KT 6SM BR BKN011 11/09 A3002 RMK AO2
KHAF 220515Z AUTO 00000KT 5SM BR SCT011 11/09 A3002 RMK AO2
KHAF 220500Z AUTO 00000KT 6SM BR FEW014 11/09 A3002 RMK AO2
KHAF 220455Z AUTO 00000KT 7SM FEW014 11/09 A3001 RMK AO2
KHAF 220435Z AUTO 30003KT 6SM BR SCT014 11/09 A3001 RMK AO2
KHAF 220420Z AUTO 30003KT 6SM BR FEW014 12/10 A3000 RMK AO2
KHAF 220415Z AUTO 00000KT 7SM SCT014 12/10 A3000 RMK AO2
KHAF 220400Z AUTO 33003KT 5SM BR CLR 13/10 A3000 RMK AO2
KHAF 220355Z AUTO 34004KT 5SM BR CLR 13/10 A3000 RMK AO2
KHAF 220335Z AUTO 35005KT 5SM BR FEW011 13/10 A3000 RMK AO2
KHAF 220315Z AUTO 5SM BR FEW011 13/11 A3001 RMK AO2
KHAF 220300Z AUTO 5SM BR SCT011 13/11 A3001 RMK AO2
KHAF 220255Z AUTO 35007KT 5SM BR BKN011 13/11 A3001 RMK AO2
KHAF 220235Z AUTO 32008KT 5SM HZ BKN011 14/11 A3001 RMK AO2
KHAF 220220Z AUTO 32008KT 6SM HZ SCT011 14/11 A3001 RMK AO2
KHAF 220215Z AUTO 35010KT 5SM HZ SCT011 14/12 A3001 RMK AO2
KHAF 220155Z AUTO 33011G16KT 5SM HZ FEW013 14/12 A3001 RMK AO2
KHAF 220140Z AUTO 34012G18KT 6SM HZ FEW013 15/12 A3001 RMK AO2
KHAF 220135Z AUTO 33013G18KT 6SM HZ FEW013 15/12 A3001 RMK AO2
KHAF 220115Z AUTO 33011KT 5SM HZ FEW011 15/12 A3002 RMK AO2
KHAF 220100Z AUTO 33011G18KT 6SM HZ CLR 15/12 A3002 RMK AO2
KHAF 220055Z AUTO 34013G18KT 6SM HZ CLR 15/12 A3002 RMK AO2
KHAF 220040Z AUTO 32013G17KT 7SM CLR 15/12 A3002 RMK AO2
KHAF 220035Z AUTO 32012KT 6SM HZ CLR 15/12 A3002 RMK AO2
KHAF 220015Z AUTO 32011G17KT 6SM HZ FEW013 15/12 A3002 RMK AO2
KHAF 220000Z AUTO 32012G16KT 6SM HZ CLR 16/12 A3003 RMK AO2
KHAF 212355Z AUTO 33009G16KT 310V010 7SM CLR 15/12 A3003 RMK AO2
KHAF 212340Z AUTO 32014KT 7SM CLR 15/11 A3003 RMK AO2
KHAF 212335Z AUTO 32016KT 7SM CLR 15/11 A3003 RMK AO2
KHAF 212315Z AUTO 32014KT 7SM CLR 15/11 A3003 RMK AO2
KHAF 212300Z AUTO 33012G16KT 7SM CLR 15/12 A3003 RMK AO2
KHAF 212255Z AUTO 32011KT 7SM CLR 15/12 A3003 RMK AO2
KHAF 212240Z AUTO 31011KT 8SM CLR 15/12 A3003 RMK AO2
KHAF 212235Z AUTO 33011KT 8SM CLR 15/12 A3003 RMK AO2
KHAF 212220Z AUTO 32010KT 7SM CLR 15/12 A3004 RMK AO2
KHAF 212215Z AUTO 31011KT 8SM CLR 15/12 A3004 RMK AO2
KHAF 212155Z AUTO 31012KT 6SM HZ CLR 15/12 A3005 RMK AO2
KHAF 212140Z AUTO 32014G19KT 7SM CLR 15/12 A3005 RMK AO2
KHAF 212135Z AUTO 31014G19KT 8SM CLR 15/12 A3005 RMK AO2
KHAF 212120Z AUTO 32014G19KT 7SM CLR 15/12 A3005 RMK AO2
KHAF 212115Z AUTO 33015KT 8SM FEW013 15/12 A3005 RMK AO2
KHAF 212055Z AUTO 32011KT 8SM BKN013 15/12 A3005 RMK AO2
KHAF 212040Z AUTO 31012KT 8SM OVC013 14/11 A3006 RMK AO2
KHAF 212035Z AUTO 31010G15KT 7SM OVC013 15/12 A3006 RMK AO2
KHAF 212020Z AUTO 33008KT 7SM OVC013 15/12 A3006 RMK AO2
KHAF 212015Z AUTO 31010KT 7SM OVC013 15/12 A3006 RMK AO2
KHAF 212000Z AUTO 33009KT 7SM OVC013 14/12 A3006 RMK AO2
KHAF 211955Z AUTO 31011G17KT 7SM OVC013 14/11 A3007 RMK AO2
KHAF 211935Z AUTO 32009G17KT 7SM OVC013 15/12 A3007 RMK AO2
KHAF 211920Z AUTO 33009G14KT 7SM 15/12 A3006 RMK AO2
KHAF 211915Z AUTO 31009G15KT 7SM 14/12 A3007 RMK AO2
KHAF 211855Z AUTO 32009G15KT 270V340 9SM OVC013 14/11 A3007 RMK AO2
KHAF 211835Z AUTO 32011KT 8SM SCT008 BKN013 13/10 A3007 RMK AO2
KHAF 211815Z AUTO 32008KT 8SM BKN008 13/10 A3007 RMK AO2
KHAF 211800Z AUTO 32008KT 8SM OVC008 12/10 A3007 RMK AO2
KHAF 211755Z AUTO 34009KT 8SM OVC008 12/10 A3007 RMK AO2
KHAF 211740Z AUTO 34011KT 8SM OVC006 12/10 A3007 RMK AO2
KHAF 211735Z AUTO 34010G14KT 8SM OVC006 12/10 A3007 RMK AO2
KHAF 211715Z AUTO 32009KT 3SM BR OVC005 12/10 A3007 RMK AO2
KHAF 211700Z AUTO 33009KT 3SM BR OVC005 12/10 A3007 RMK AO2
KHAF 211655Z AUTO 33008KT 3SM BR OVC005 12/10 A3007 RMK AO2
KHAF 211640Z AUTO 34008KT 3SM BR OVC006 12/10 A3006 RMK AO2
KHAF 211635Z AUTO 35006KT 5SM BR OVC006 12/10 A3006 RMK AO2
KHAF 211615Z AUTO 33007KT 5SM BR OVC006 12/10 A3006 RMK AO2
KHAF 211555Z AUTO 33008KT 6SM BR OVC006 12/10 A3006 RMK AO2
KHAF 211540Z AUTO 33008KT 6SM BR OVC006 12/10 A3006 RMK AO2
KHAF 211535Z AUTO 33005KT 7SM OVC006 12/10 A3006 RMK AO2
KHAF 211515Z AUTO 33008KT 5SM BR OVC006 11/10 A3006 RMK AO2
No TAF found for KHAF